createdAt,value
2019-03-27T00:01:11.375Z,8.4
2019-03-27T00:06:09.161Z,9
2019-03-27T00:11:07.127Z,9
2019-03-27T00:16:05.228Z,9
2019-03-27T00:21:03.138Z,8.9
2019-03-27T00:26:01.411Z,8.9
2019-03-27T00:30:59.457Z,8.9
2019-03-27T00:35:57.879Z,8.8
2019-03-27T00:40:55.909Z,8.3
2019-03-27T00:45:53.861Z,8.8
2019-03-27T00:50:52.022Z,8.3
2019-03-27T00:55:50.106Z,8.3
2019-03-27T01:00:48.248Z,8.7
2019-03-27T01:05:46.232Z,8.2
2019-03-27T01:10:44.220Z,8.2
2019-03-27T01:15:42.461Z,8.2
2019-03-27T01:20:40.454Z,8.7
2019-03-27T01:25:38.453Z,8.7
2019-03-27T01:30:36.492Z,8.2
2019-03-27T01:35:34.558Z,8.3
2019-03-27T01:40:33.205Z,8.4
2019-03-27T01:45:31.214Z,8.7
2019-03-27T01:50:29.456Z,8.4
2019-03-27T01:55:27.223Z,8.7
2019-03-27T02:00:25.276Z,8.6
2019-03-27T02:05:23.249Z,8.7
2019-03-27T02:10:21.360Z,8.1
2019-03-27T02:15:19.440Z,8.5
2019-03-27T02:20:17.517Z,8.6
2019-03-27T02:25:14.532Z,8.6
2019-03-27T02:30:12.619Z,8.6
2019-03-27T02:35:10.776Z,8.1
2019-03-27T02:40:08.670Z,8.4
2019-03-27T02:45:06.879Z,7.8
2019-03-27T02:50:04.904Z,8.4
2019-03-27T02:55:03.140Z,8.3
2019-03-27T03:00:01.104Z,8.3
2019-03-27T03:04:58.929Z,8.2
2019-03-27T03:09:57.160Z,7.7
2019-03-27T03:14:55.190Z,2.4
2019-03-27T03:19:53.630Z,7.7
2019-03-27T03:24:51.497Z,8.1
2019-03-27T03:29:49.280Z,8.1
2019-03-27T03:34:47.400Z,8.1
2019-03-27T03:39:45.562Z,8.1
2019-03-27T03:44:44.175Z,8.1
2019-03-27T03:49:42.458Z,8.1
2019-03-27T03:54:40.556Z,8.1
2019-03-27T03:59:38.993Z,8
2019-03-27T04:04:36.996Z,8.1
2019-03-27T04:09:35.038Z,7.9
2019-03-27T04:14:33.346Z,7.9
2019-03-27T04:19:31.597Z,7.9
2019-03-27T04:24:29.746Z,7.9
2019-03-27T04:29:27.903Z,7.8
2019-03-27T04:34:26.192Z,7.7
2019-03-27T04:39:24.137Z,7.7
2019-03-27T04:44:22.205Z,7.7
2019-03-27T04:49:20.431Z,7.8
2019-03-27T04:54:18.279Z,7.8
2019-03-27T04:59:16.457Z,7.5
2019-03-27T05:04:14.558Z,7.7
2019-03-27T05:09:12.693Z,7.7
2019-03-27T05:14:10.732Z,7.7
2019-03-27T05:19:09.294Z,7.6
2019-03-27T05:24:07.324Z,7.5
2019-03-27T05:29:05.322Z,7.8
2019-03-27T05:34:03.620Z,7.7
2019-03-27T05:39:01.780Z,7.7
2019-03-27T05:43:59.665Z,7.7
2019-03-27T05:48:58.030Z,7.6
2019-03-27T05:53:56.438Z,6.8
2019-03-27T05:58:54.865Z,7.6
2019-03-27T06:03:53.469Z,7.7
2019-03-27T06:08:51.866Z,7.6
2019-03-27T06:13:51.020Z,7.7
2019-03-27T06:18:49.631Z,7.7
2019-03-27T06:23:48.314Z,7.7
2019-03-27T06:28:46.486Z,7.7
2019-03-27T06:33:44.612Z,7.7
2019-03-27T06:38:42.994Z,7.8
2019-03-27T06:43:41.529Z,7.9
2019-03-27T06:48:39.592Z,8
2019-03-27T06:53:37.634Z,8.1
2019-03-27T06:58:35.844Z,8.1
2019-03-27T07:03:34.572Z,7.6
2019-03-27T07:08:33.111Z,7.7
2019-03-27T07:13:31.231Z,8.3
2019-03-27T07:18:39.403Z,8.4
2019-03-27T07:23:27.857Z,7.9
2019-03-27T07:28:26.027Z,8.5
2019-03-27T07:33:24.022Z,8.6
2019-03-27T07:38:22.452Z,8.7
2019-03-27T07:43:21.185Z,8.3
2019-03-27T07:48:19.284Z,8.4
2019-03-27T07:53:17.991Z,8.5
2019-03-27T07:58:16.725Z,8.6
2019-03-27T08:03:15.361Z,9.2
2019-03-27T08:08:13.607Z,8.3
2019-03-27T08:13:12.187Z,8.7
2019-03-27T08:18:10.802Z,9.4
2019-03-27T08:23:09.298Z,8.9
2019-03-27T08:28:06.953Z,8.9
2019-03-27T08:33:05.625Z,9.5
2019-03-27T08:38:03.895Z,9
2019-03-27T08:43:02.469Z,8.9
2019-03-27T08:48:00.550Z,9
2019-03-27T08:52:59.334Z,9.1
2019-03-27T08:57:57.332Z,9.2
2019-03-27T09:02:55.862Z,9.8
2019-03-27T09:07:54.205Z,9.4
2019-03-27T09:12:52.775Z,9.5
2019-03-27T09:17:51.262Z,9.5
2019-03-27T09:22:49.937Z,10.1
2019-03-27T09:27:50.273Z,9.9
2019-03-27T09:32:49.529Z,9.9
2019-03-27T09:37:48.186Z,10.5
2019-03-27T09:42:46.869Z,10
2019-03-27T09:47:44.905Z,10.1
2019-03-27T09:52:43.839Z,5.9
2019-03-27T09:57:41.723Z,10.3
2019-03-27T10:02:40.264Z,10.4
2019-03-27T10:07:38.721Z,10.6
2019-03-27T10:12:37.682Z,11.4
2019-03-27T10:17:36.834Z,11.6
2019-03-27T10:22:35.617Z,11.3
2019-03-27T10:27:33.765Z,11.4
2019-03-27T10:32:32.783Z,11.4
2019-03-27T10:37:31.556Z,11.1
2019-03-27T10:42:30.153Z,11.6
2019-03-27T10:47:28.785Z,11.7
2019-03-27T10:52:27.324Z,11.8
2019-03-27T10:57:26.483Z,12.5
2019-03-27T11:02:24.831Z,10.1
2019-03-27T11:07:23.500Z,12
2019-03-27T11:12:22.044Z,12
2019-03-27T11:17:20.766Z,12.6
2019-03-27T11:22:18.946Z,12.4
2019-03-27T11:27:17.396Z,13
2019-03-27T11:32:15.930Z,13.2
2019-03-27T11:37:14.204Z,13.4
2019-03-27T11:42:13.190Z,13.5
2019-03-27T11:47:12.006Z,13.7
2019-03-27T11:52:10.808Z,13.4
2019-03-27T11:57:09.330Z,14
2019-03-27T12:02:07.857Z,14.3
2019-03-27T12:07:05.879Z,14.3
2019-03-27T12:12:04.802Z,14.5
2019-03-27T12:17:03.305Z,14.7
2019-03-27T12:22:02.452Z,14.8
2019-03-27T12:27:00.942Z,14.9
2019-03-27T12:31:59.622Z,15
2019-03-27T12:36:57.753Z,15.2
2019-03-27T12:41:56.356Z,15.3
2019-03-27T12:46:55.600Z,14.6
2019-03-27T12:51:54.556Z,15
2019-03-27T12:56:53.091Z,14.7
2019-03-27T13:01:52.234Z,15.1
2019-03-27T13:06:50.691Z,15.7
2019-03-27T13:11:49.312Z,15.7
2019-03-27T13:16:47.754Z,15.2
2019-03-27T13:21:46.186Z,15.6
2019-03-27T13:26:44.746Z,15.7
2019-03-27T13:31:43.481Z,15.4
2019-03-27T13:36:42.099Z,15.5
2019-03-27T13:41:41.023Z,14.8
2019-03-27T13:46:39.720Z,15.4
2019-03-27T13:51:40.681Z,15.4
2019-03-27T13:56:37.088Z,14.9
2019-03-27T14:01:35.527Z,15.4
2019-03-27T14:06:34.058Z,15.3
2019-03-27T14:11:32.148Z,15.2
2019-03-27T14:16:30.418Z,15.2
2019-03-27T14:21:29.303Z,14.6
2019-03-27T14:26:28.026Z,14.6
2019-03-27T14:31:26.330Z,15
2019-03-27T14:36:25.108Z,14.9
2019-03-27T14:41:23.967Z,14.4
2019-03-27T14:46:22.297Z,14.8
2019-03-27T14:51:20.698Z,14.7
2019-03-27T14:56:19.769Z,14.2
2019-03-27T15:01:18.214Z,14.6
2019-03-27T15:06:16.455Z,14.6
2019-03-27T15:11:14.767Z,14.3
2019-03-27T15:16:13.254Z,14.5
2019-03-27T15:21:11.865Z,14.4
2019-03-27T15:26:10.289Z,14.3
2019-03-27T15:31:19.684Z,13.8
2019-03-27T15:36:08.319Z,13.7
2019-03-27T15:41:06.956Z,13.6
2019-03-27T15:46:05.818Z,14.1
2019-03-27T15:51:04.108Z,14
2019-03-27T15:56:02.508Z,13.9
2019-03-27T16:01:01.071Z,13.3
2019-03-27T16:05:59.223Z,13.8
2019-03-27T16:10:57.573Z,13.7
2019-03-27T16:15:56.411Z,13.6
2019-03-27T16:20:55.285Z,13.5
2019-03-27T16:25:53.787Z,13.5
2019-03-27T16:30:52.259Z,13.4
2019-03-27T16:35:50.781Z,13.3
2019-03-27T16:40:49.380Z,12.8
2019-03-27T16:45:47.735Z,13.1
2019-03-27T16:50:46.115Z,13
2019-03-27T16:55:44.602Z,12.9
2019-03-27T17:00:43.619Z,12.3
2019-03-27T17:05:53.214Z,12.8
2019-03-27T17:10:41.261Z,12.2
2019-03-27T17:15:40.148Z,12.1
2019-03-27T17:20:38.280Z,12.5
2019-03-27T17:25:36.835Z,12.4
2019-03-27T17:30:35.239Z,11.9
2019-03-27T17:35:34.355Z,11.8
2019-03-27T17:40:32.719Z,12.1
2019-03-27T17:45:31.583Z,12.2
2019-03-27T17:50:30.735Z,11.8
2019-03-27T17:55:29.518Z,12.1
2019-03-27T18:00:28.036Z,11.6
2019-03-27T18:05:26.484Z,11.5
2019-03-27T18:10:25.495Z,11.9
2019-03-27T18:15:24.396Z,11.8
2019-03-27T18:20:22.450Z,11.4
2019-03-27T18:25:21.352Z,11.4
2019-03-27T18:30:20.509Z,11.8
2019-03-27T18:35:19.323Z,11.8
2019-03-27T18:40:18.345Z,11.8
2019-03-27T18:45:16.741Z,11.2
2019-03-27T18:50:15.615Z,11.1
2019-03-27T18:55:25.685Z,11.6
2019-03-27T19:00:13.332Z,11
2019-03-27T19:05:11.724Z,10.9
2019-03-27T19:10:10.346Z,10.9
2019-03-27T19:15:09.222Z,10.9
2019-03-27T19:20:08.410Z,10.9
2019-03-27T19:25:07.517Z,11.4
2019-03-27T19:30:06.710Z,10.9
2019-03-27T19:35:05.139Z,10.8
2019-03-27T19:40:03.978Z,10.8
2019-03-27T19:45:02.557Z,10.7
2019-03-27T19:50:01.847Z,10.7
2019-03-27T19:55:00.524Z,10.6
2019-03-27T19:59:58.975Z,10.4
2019-03-27T20:04:57.490Z,10.4
2019-03-27T20:09:56.536Z,10.4
2019-03-27T20:14:55.031Z,10.4
2019-03-27T20:19:53.939Z,10.3
2019-03-27T20:24:52.649Z,10.3
2019-03-27T20:29:51.026Z,10.3
2019-03-27T20:34:49.864Z,10.2
2019-03-27T20:39:48.201Z,10.1
2019-03-27T20:44:46.871Z,10.1
2019-03-27T20:49:45.862Z,9.9
2019-03-27T20:54:54.172Z,10.1
2019-03-27T20:59:43.157Z,10.1
2019-03-27T21:04:41.860Z,10
2019-03-27T21:09:40.519Z,9.9
2019-03-27T21:14:39.133Z,10
2019-03-27T21:19:37.618Z,9.9
2019-03-27T21:24:36.083Z,9.8
2019-03-27T21:29:34.952Z,9.7
2019-03-27T21:34:33.701Z,9.7
2019-03-27T21:39:32.515Z,9.8
2019-03-27T21:44:31.024Z,9.7
2019-03-27T21:49:29.861Z,9.6
2019-03-27T21:54:28.683Z,9.6
2019-03-27T21:59:28.038Z,9.5
2019-03-27T22:04:27.111Z,9.5
2019-03-27T22:09:25.509Z,9.4
2019-03-27T22:14:24.714Z,9.4
2019-03-27T22:19:23.599Z,9.2
2019-03-27T22:24:22.467Z,8.9
2019-03-27T22:29:21.607Z,9
2019-03-27T22:34:20.479Z,9.5
2019-03-27T22:39:19.322Z,8.9
2019-03-27T22:44:17.753Z,8.9
2019-03-27T22:49:16.505Z,8.8
2019-03-27T22:54:15.110Z,8.6
2019-03-27T22:59:14.591Z,9.1
2019-03-27T23:04:13.015Z,8.6
2019-03-27T23:09:11.649Z,8.6
2019-03-27T23:14:10.760Z,8.5
2019-03-27T23:19:09.478Z,8.5
2019-03-27T23:24:08.089Z,8.4
2019-03-27T23:29:07.021Z,8.3
2019-03-27T23:34:05.848Z,8.3
2019-03-27T23:39:04.603Z,8.8
2019-03-27T23:44:03.170Z,8.7
2019-03-27T23:49:02.131Z,8.6
2019-03-27T23:54:01.033Z,8.5
2019-03-27T23:59:00.138Z,6.8
